Terminal Aerodrome Forecast
Issued by NWS Sioux Falls, SD

Home | Current Version | Previous Version | Text Only | Print | Product List | Glossary On
Versions: 1 2 3 4 5 6 7 8 9 10 11 12 13 14 15
148
FTUS43 KFSD 211740
TAFFSD
TAF
KFSD 211740Z 2118/2218 18007KT P6SM SKC
     FM220600 14004KT P6SM BKN110
     FM221200 12005KT P6SM OVC030
     FM221400 12006KT P6SM OVC015
     FM221600 12008KT 1SM -SN BR OVC008=

USA.gov is the U.S. government's official web portal to all federal, state and local government web resources and services.